Latest Coastal Weather Observations for Rottnest Island

IDW60701

Issued at 12:15 am WST Friday 25 April 2014 (issued every 10 minutes, with the page automatically refreshed every 10 minutes)

About coastal observations | Map of coastal stations | Coastal observations for WA | Marine services | Other Formats
Station Details ID: 009193 Name: ROTTNEST ISLAND Lat: -32.01 Lon: 115.50 Height: 43.1 m
Data from the previous 72 hours. | See also: Recent months at Rottnest Island
Date/Time
WST
Temp

°C
Wind Pressure Rain
since 9am
mm
Weather Cloud Vis
km
Sea
Height
m
Swell
Dir
 
Speed
knots
Gust
knots
hPa Trend Height
m
Period
s
Dir
25/12:00am 20.2 S 10 13 1010.0 - 0.0 - - - - - - -
 
Date/Time
WST
Temp

°C
Wind Pressure Rain
since 9am
mm
Weather Cloud Vis
km
Sea
Height
m
Swell
Dir
 
Speed
knots
Gust
knots
hPa Trend Height
m
Period
s
Dir
24/11:30pm 20.1 S 9 11 1010.6 - 0.0 - - - - - - -
24/11:00pm 20.3 S 8 11 1010.9 - 0.0 - - - - - - -
24/10:30pm 20.1 S 7 8 1011.1 - 0.0 - - - - - - -
24/10:00pm 20.5 S 8 10 1011.1 - 0.0 - - - - - - -
24/09:30pm 20.6 S 8 10 1010.9 - 0.0 - - - - - - -
24/09:00pm 20.6 S 9 11 1010.7 - 0.0 - - - - - - -
24/08:30pm 20.5 S 11 14 1010.4 - 0.0 - - - - - - -
24/08:00pm 20.1 SSW 10 16 1010.9 - 0.0 - - - - - - -
24/07:30pm 20.3 SSW 9 12 1010.4 - 0.0 - - - - - - -
24/07:00pm 20.3 SSW 9 12 1009.8 - 0.0 - - - - - - -
24/06:30pm 20.3 SSW 9 11 1009.5 - 0.0 - - - - - - -
24/06:00pm 20.0 WSW 6 8 1008.9 - 0.0 - - - - - - -
24/05:30pm 20.3 SW 4 6 1008.6 - 0.0 - - - - - - -
24/05:00pm 20.6 S 9 11 1008.0 - 0.0 - - - - - - -
24/04:30pm 20.9 SW 6 8 1008.3 - 0.0 - - - - - - -
24/04:00pm 20.9 SSW 8 9 1008.2 - 0.0 - - - - - - -
24/03:30pm 20.9 SW 6 8 1008.6 - 0.0 - - - - - - -
24/03:00pm 20.9 SSE 2 6 1008.2 - 0.0 - - - - - - -
24/02:30pm 20.8 SE 4 6 1008.0 - 0.0 - - - - - - -
24/02:00pm 20.5 S 7 10 1008.1 - 0.0 - - - - - - -
24/01:30pm 20.7 S 8 11 1008.1 - 0.0 - - - - - - -
24/01:00pm 20.4 S 7 9 1008.5 - 0.0 - - - - - - -
24/12:30pm 20.4 S 8 9 1008.9 - 0.0 - - - - - - -
24/12:00pm 21.0 S 8 10 1008.9 - 0.0 - - - - - - -
24/11:30am 20.2 SSE 7 8 1009.5 - 0.0 - - - - - - -
24/11:00am 20.0 SSE 7 9 1009.5 - 0.0 - - - - - - -
24/10:30am 20.2 SSE 6 8 1010.3 - 0.0 - - - - - - -
24/10:00am 19.8 SE 8 10 1010.4 - 0.0 - - - - - - -
24/09:30am 19.4 SE 7 9 1010.8 - 0.0 - - - - - - -
24/09:00am 19.9 SE 8 11 1010.5 - 0.0 - - - - - - -
24/08:30am 19.3 ESE 7 10 1010.7 - 0.0 - - - - - - -
24/08:00am 18.8 SE 9 11 1010.7 - 0.0 - - - - - - -
24/07:30am 18.1 SE 8 10 1010.7 - 0.0 - - - - - - -
24/07:00am 18.2 SE 9 11 1010.6 - 0.0 - - - - - - -
24/06:30am 17.9 SE 6 11 1010.8 - 0.0 - - - - - - -
24/06:00am 18.3 SE 10 13 1010.3 - 0.0 - - - - - - -
24/05:30am 17.7 SE 8 10 1010.6 - 0.0 - - - - - - -
24/05:00am 17.5 ESE 7 9 1010.7 - 0.0 - - - - - - -
24/04:30am 17.8 ESE 7 9 1010.7 - 0.0 - - - - - - -
24/04:00am 18.6 E 8 11 1011.0 - 0.0 - - - - - - -
24/03:30am 19.2 E 10 13 1011.2 - 0.0 - - - - - - -
24/03:00am 19.3 E 9 13 1011.2 - 0.0 - - - - - - -
24/02:30am 19.5 E 10 15 1011.9 - 0.0 - - - - - - -
24/02:00am 19.4 E 10 14 1012.3 - 0.0 - - - - - - -
24/01:30am 19.2 E 10 12 1012.4 - 0.0 - - - - - - -
24/01:00am 19.5 ESE 9 12 1012.7 - 0.0 - - - - - - -
24/12:30am 19.9 ESE 11 15 1012.8 - 0.0 - - - - - - -
24/12:00am 19.8 ESE 10 13 1012.6 - 0.0 - - - - - - -
 
Date/Time
WST
Temp

°C
Wind Pressure Rain
since 9am
mm
Weather Cloud Vis
km
Sea
Height
m
Swell
Dir
 
Speed
knots
Gust
knots
hPa Trend Height
m
Period
s
Dir
23/11:30pm 19.8 ESE 11 15 1013.1 - 0.0 - - - - - - -
23/11:00pm 20.2 ESE 11 16 1013.4 - 0.0 - - - - - - -
23/10:30pm 20.3 ESE 11 15 1013.8 - 0.0 - - - - - - -
23/10:00pm 20.3 ESE 9 13 1014.0 - 0.0 - - - - - - -
23/09:30pm 20.1 SE 11 13 1013.9 - 0.0 - - - - - - -
23/09:00pm 20.6 SSE 12 15 1013.8 - 0.0 - - - - - - -
23/08:30pm 20.5 S 16 19 1014.1 - 0.0 - - - - - - -
23/08:00pm 20.5 S 17 21 1014.2 - 0.0 - - - - - - -
23/07:30pm 20.3 S 20 23 1013.9 - 0.0 - - - - - - -
23/07:00pm 20.0 S 19 23 1014.0 - 0.0 - - - - - - -
23/06:30pm 19.9 S 20 24 1013.7 - 0.0 - - - - - - -
23/06:00pm 19.8 S 19 23 1013.2 - 0.0 - - - - - - -
23/05:30pm 20.0 S 19 23 1013.4 - 0.0 - - - - - - -
23/05:00pm 20.2 S 18 23 1013.4 - 0.0 - - - - - - -
23/04:30pm 20.3 S 18 22 1013.6 - 0.0 - - - - - - -
23/04:00pm 21.2 S 18 22 1013.8 - 0.0 - - - - - - -
23/03:30pm 21.0 S 18 22 1013.8 - 0.0 - - - - - - -
23/03:00pm 20.9 S 17 21 1013.8 - 0.0 - - - - - - -
23/02:30pm 20.4 S 18 22 1014.1 - 0.0 - - - - - - -
23/02:00pm 21.4 S 18 22 1014.3 - 0.0 - - - - - - -
23/01:30pm 21.0 S 18 21 1014.6 - 0.0 - - - - - - -
23/01:00pm 20.3 S 19 22 1015.0 - 0.0 - - - - - - -
23/12:30pm 20.3 S 18 22 1015.7 - 0.0 - - - - - - -
23/12:00pm 20.4 SSE 16 20 1016.0 - 0.0 - - - - - - -
23/11:30am 19.6 SSE 16 20 1016.6 - 0.0 - - - - - - -
23/11:00am 19.5 SSE 13 16 1017.0 - 0.0 - - - - - - -
23/10:30am 18.9 SSE 14 19 1017.4 - 0.0 - - - - - - -
23/10:00am 19.2 SE 16 19 1017.5 - 0.0 - - - - - - -
23/09:30am 18.4 SE 15 20 1018.1 - 0.0 - - - - - - -
23/09:00am 17.9 SE 10 15 1018.3 - 0.0 - - - - - - -
23/08:30am 17.5 ESE 10 14 1018.5 - 0.0 - - - - - - -
23/08:00am 17.1 ESE 9 14 1018.1 - 0.0 - - - - - - -
23/07:30am 16.5 ESE 9 14 1017.6 - 0.0 - - - - - - -
23/07:00am 16.0 ESE 9 14 1017.5 - 0.0 - - - - - - -
23/06:30am 16.1 SE 11 14 1017.4 - 0.0 - - - - - - -
23/06:00am 16.5 SE 12 16 1017.2 - 0.0 - - - - - - -
23/05:30am 16.8 SE 14 19 1017.4 - 0.0 - - - - - - -
23/05:00am 17.0 SE 17 22 1017.3 - 0.0 - - - - - - -
23/04:30am 17.0 SE 17 22 1017.0 - 0.0 - - - - - - -
23/04:00am 17.0 SE 18 22 1016.8 - 0.0 - - - - - - -
23/03:30am 16.9 SE 18 21 1017.0 - 0.0 - - - - - - -
23/03:00am 17.3 SSE 16 21 1017.0 - 0.0 - - - - - - -
23/02:30am 17.4 SSE 18 23 1017.4 - 0.0 - - - - - - -
23/02:00am 17.4 SSE 19 24 1017.3 - 0.0 - - - - - - -
23/01:30am 17.6 SSE 20 24 1017.3 - 0.0 - - - - - - -
23/01:00am 17.8 SSE 20 24 1017.2 - 0.0 - - - - - - -
23/12:30am 17.9 SSE 19 24 1017.2 - 0.0 - - - - - - -
23/12:00am 18.0 SSE 19 23 1017.1 - 0.0 - - - - - - -
 
Date/Time
WST
Temp

°C
Wind Pressure Rain
since 9am
mm
Weather Cloud Vis
km
Sea
Height
m
Swell
Dir
 
Speed
knots
Gust
knots
hPa Trend Height
m
Period
s
Dir
22/11:30pm 18.4 S 19 23 1017.5 - 0.0 - - - - - - -
22/11:00pm 18.3 S 19 22 1017.9 - 0.0 - - - - - - -
22/10:30pm 18.5 S 19 22 1018.2 - 0.0 - - - - - - -
22/10:00pm 18.5 S 17 21 1018.5 - 0.0 - - - - - - -
22/09:30pm 18.5 S 17 22 1018.3 - 0.0 - - - - - - -
22/09:00pm 18.5 S 18 23 1018.0 - 0.0 - - - - - - -
22/08:30pm 18.6 S 19 23 1018.1 - 0.0 - - - - - - -
22/08:00pm 18.6 S 18 22 1018.2 - 0.0 - - - - - - -
22/07:30pm 18.4 S 18 21 1018.3 - 0.0 - - - - - - -
22/07:00pm 18.6 S 19 22 1018.0 - 0.0 - - - - - - -
22/06:30pm 18.5 S 17 21 1017.6 - 0.0 - - - - - - -
22/06:00pm 18.5 S 17 20 1016.9 - 0.0 - - - - - - -
22/05:30pm 18.7 S 17 21 1017.1 - 0.0 - - - - - - -
22/05:00pm 19.3 S 16 20 1017.2 - 0.0 - - - - - - -
22/04:30pm 19.6 S 16 19 1017.6 - 0.0 - - - - - - -
22/04:00pm 19.8 S 16 19 1017.6 - 0.0 - - - - - - -
22/03:30pm 20.1 S 15 19 1017.6 - 0.0 - - - - - - -
22/03:00pm 20.1 S 15 18 1017.4 - 0.0 - - - - - - -
22/02:30pm 20.8 S 14 17 1018.1 - 0.0 - - - - - - -
22/02:00pm 19.9 S 13 15 1018.4 - 0.0 - - - - - - -
22/01:30pm 20.8 S 13 16 1018.6 - 0.0 - - - - - - -
22/01:00pm 19.8 S 12 15 1019.1 - 0.0 - - - - - - -
22/12:30pm 19.7 S 11 14 1019.6 - 0.0 - - - - - - -
22/12:00pm 19.0 S 10 14 1019.8 - 0.0 - - - - - - -
22/11:30am 18.8 S 9 11 1020.2 - 0.0 - - - - - - -
22/11:00am 18.2 S 8 10 1020.7 - 0.0 - - - - - - -
22/10:30am 18.9 S 7 10 1021.0 - 0.0 - - - - - - -
22/10:00am 18.5 SE 7 10 1021.2 - 0.0 - - - - - - -
22/09:30am 18.4 SE 5 7 1021.4 - 0.0 - - - - - - -
22/09:00am 17.6 ESE 3 5 1021.1 - 0.0 - - - - - - -
22/08:30am 17.3 E 2 4 1021.2 - 0.0 - - - - - - -
22/08:00am 16.4 ESE 4 5 1020.9 - 0.0 - - - - - - -
22/07:30am 15.6 ESE 5 6 1020.7 - 0.0 - - - - - - -
22/07:00am 15.0 ESE 5 7 1020.5 - 0.0 - - - - - - -
22/06:30am 14.9 ESE 8 9 1020.1 - 0.0 - - - - - - -
22/06:00am 14.7 ESE 7 9 1019.8 - 0.0 - - - - - - -
22/05:30am 15.0 ESE 7 9 1020.0 - 0.0 - - - - - - -
22/05:00am 15.2 ESE 7 11 1020.0 - 0.0 - - - - - - -
22/04:30am 15.3 SE 10 12 1019.8 - 0.0 - - - - - - -
22/04:00am 16.2 SE 11 14 1019.6 - 0.0 - - - - - - -
22/03:30am 16.4 SSE 11 13 1019.5 - 0.0 - - - - - - -
22/03:00am 16.5 SSE 11 14 1019.3 - 0.0 - - - - - - -
22/02:30am 16.3 SE 11 15 1019.6 - 0.0 - - - - - - -
22/02:00am 16.6 SSE 11 15 1019.8 - 0.0 - - - - - - -
22/01:30am 16.9 SSE 12 16 1019.7 - 0.0 - - - - - - -
22/01:00am 17.2 SSE 13 17 1019.7 - 0.0 - - - - - - -
22/12:30am 17.4 SSE 14 19 1019.7 - 0.0 - - - - - - -

Other Formats:

Comma delimited format used in spreadsheet applications
http://www.bom.gov.au/fwo/IDW60701/IDW60701.94602.axf

JavaScript Object Notation format (JSON) in row-major order
http://www.bom.gov.au/fwo/IDW60701/IDW60701.94602.json